Time;durP1;ratioP1;P1;durP2;ratioP2;P2;SDS_P1;SDS_P2;PMS_P1;PMS_P2;Temp;Humidity;BMP_temperature;BMP_pressure;BME280_temperature;BME280_humidity;BME280_pressure;Samples;Min_cycle;Max_cycle;Signal;HPM_P1;HPM_P2
2024/03/19 00:00:54;;;;;;;8.20;4.90;;;;;;;12.17;48.96;101404.04;110428;1255;23237;-58
2024/03/19 00:03:22;;;;;;;5.70;5.00;;;;;;;12.15;48.92;101407.55;110503;1257;23134;-58
2024/03/19 00:05:49;;;;;;;6.00;4.70;;;;;;;12.11;48.81;101412.50;110215;1261;22441;-58
2024/03/19 00:08:17;;;;;;;6.70;5.10;;;;;;;12.07;48.88;101405.95;110477;1257;22440;-58
2024/03/19 00:10:44;;;;;;;6.90;4.80;;;;;;;12.05;48.73;101404.42;110413;1257;22449;-58
2024/03/19 00:13:11;;;;;;;6.00;5.10;;;;;;;12.03;48.69;101403.95;109702;1276;1002251;-59
2024/03/19 00:15:40;;;;;;;5.30;4.60;;;;;;;12.01;48.96;101403.09;110259;1260;22134;-58
2024/03/19 00:18:08;;;;;;;7.30;4.60;;;;;;;12.02;49.01;101400.48;109448;1260;1002476;-58
2024/03/19 00:20:35;;;;;;;7.00;4.80;;;;;;;12.02;49.20;101390.73;110579;1257;22152;-58
2024/03/19 00:23:03;;;;;;;4.80;4.00;;;;;;;12.04;49.38;101387.75;110436;1254;22276;-58
2024/03/19 00:25:30;;;;;;;6.70;4.40;;;;;;;12.07;49.23;101387.34;110466;1255;22128;-58
2024/03/19 00:27:57;;;;;;;5.70;4.00;;;;;;;12.09;49.12;101382.80;110434;1254;22144;-58
2024/03/19 00:30:25;;;;;;;6.10;4.20;;;;;;;12.11;49.16;101384.14;110431;1255;23035;-58
2024/03/19 00:32:52;;;;;;;5.90;4.40;;;;;;;12.13;49.17;101380.98;110423;1253;22130;-58
2024/03/19 00:35:20;;;;;;;4.20;3.50;;;;;;;12.15;49.07;101381.63;110526;1257;22495;-58
2024/03/19 00:37:49;;;;;;;5.00;4.20;;;;;;;12.16;48.80;101381.95;110519;1254;22123;-58
2024/03/19 00:40:16;;;;;;;4.80;3.80;;;;;;;12.16;48.78;101382.48;110404;1270;22147;-58
2024/03/19 00:42:43;;;;;;;4.70;3.70;;;;;;;12.17;48.91;101386.80;110476;1257;22402;-59
2024/03/19 00:45:11;;;;;;;4.30;3.90;;;;;;;12.19;48.98;101390.08;110076;1267;22344;-58
2024/03/19 00:47:38;;;;;;;7.00;4.20;;;;;;;12.19;49.04;101388.52;110425;1254;22127;-58
2024/03/19 00:50:06;;;;;;;6.00;3.90;;;;;;;12.18;48.94;101394.61;110454;1269;22150;-58
2024/03/19 00:52:34;;;;;;;4.80;4.40;;;;;;;12.17;48.75;101396.91;110137;1262;22878;-58
2024/03/19 00:55:04;;;;;;;4.40;3.80;;;;;;;12.13;48.48;101398.36;110504;1254;22152;-58
2024/03/19 00:57:32;;;;;;;3.70;3.30;;;;;;;12.12;48.30;101394.38;110506;1256;22128;-58
2024/03/19 00:59:59;;;;;;;5.00;4.20;;;;;;;12.07;48.46;101394.64;110445;1254;22287;-58
2024/03/19 01:02:26;;;;;;;6.70;4.30;;;;;;;12.10;48.62;101396.16;109658;1255;1003037;-58
2024/03/19 01:04:54;;;;;;;4.60;4.10;;;;;;;12.10;48.94;101393.89;110414;1258;22141;-58
2024/03/19 01:07:22;;;;;;;6.40;4.50;;;;;;;12.11;49.03;101396.14;110440;1257;22276;-58
2024/03/19 01:09:50;;;;;;;5.80;4.30;;;;;;;12.10;48.74;101390.43;110463;1257;22838;-58
2024/03/19 01:12:17;;;;;;;6.10;4.20;;;;;;;12.08;48.74;101386.97;110429;1257;22378;-58
2024/03/19 01:14:45;;;;;;;7.00;5.20;;;;;;;12.07;48.55;101387.52;110423;1260;22857;-58
2024/03/19 01:17:13;;;;;;;6.00;4.70;;;;;;;12.05;48.67;101386.86;110445;1254;23117;-58
2024/03/19 01:19:40;;;;;;;6.20;4.90;;;;;;;12.03;48.86;101383.95;110442;1255;22296;-58
2024/03/19 01:22:09;;;;;;;7.10;4.90;;;;;;;12.02;48.93;101383.78;110147;1261;22133;-58
2024/03/19 01:24:37;;;;;;;7.20;4.90;;;;;;;12.02;48.93;101377.52;110549;1257;22822;-58
2024/03/19 01:27:05;;;;;;;8.00;4.60;;;;;;;12.02;49.16;101372.14;110047;1262;23075;-58
2024/03/19 01:29:32;;;;;;;5.20;4.50;;;;;;;12.03;49.20;101370.39;110068;1261;22834;-58
2024/03/19 01:32:00;;;;;;;5.10;4.60;;;;;;;12.05;49.34;101359.57;109621;1258;1002868;-58
2024/03/19 01:34:27;;;;;;;5.80;4.80;;;;;;;12.06;49.09;101360.77;109693;1257;1002469;-58
2024/03/19 01:36:55;;;;;;;5.10;4.20;;;;;;;12.05;48.90;101363.38;110258;1272;22214;-58
2024/03/19 01:39:22;;;;;;;6.00;3.70;;;;;;;12.05;48.73;101369.81;110394;1256;22923;-58
2024/03/19 01:41:53;;;;;;;4.20;3.60;;;;;;;12.03;48.65;101375.41;110413;1254;22290;-58
2024/03/19 01:44:21;;;;;;;4.40;3.70;;;;;;;12.04;48.57;101372.27;110484;1254;22303;-58
2024/03/19 01:46:49;;;;;;;4.80;4.20;;;;;;;12.06;48.50;101374.34;110414;1254;22136;-58
2024/03/19 01:49:18;;;;;;;4.40;3.80;;;;;;;12.05;48.27;101376.59;110454;1257;22118;-58
2024/03/19 01:51:45;;;;;;;6.30;4.20;;;;;;;12.03;48.11;101380.30;110373;1259;23321;-58
2024/03/19 01:54:15;;;;;;;5.40;4.10;;;;;;;12.00;48.15;101381.55;110336;1256;22313;-58
2024/03/19 01:56:42;;;;;;;3.90;3.50;;;;;;;11.97;48.23;101380.75;110341;1256;22445;-58
2024/03/19 01:59:10;;;;;;;5.20;4.30;;;;;;;11.95;48.23;101384.44;110400;1256;22116;-58
2024/03/19 02:01:38;;;;;;;5.20;4.20;;;;;;;11.92;48.40;101388.13;110441;1254;22165;-58
2024/03/19 02:04:05;;;;;;;7.80;4.50;;;;;;;11.91;48.58;101389.02;110443;1257;22462;-59
2024/03/19 02:06:32;;;;;;;5.00;4.40;;;;;;;11.91;48.73;101384.86;109642;1256;1002262;-58
2024/03/19 02:09:03;;;;;;;4.40;3.80;;;;;;;11.91;48.93;101387.46;110335;1256;22132;-58
2024/03/19 02:11:30;;;;;;;5.60;4.00;;;;;;;11.92;48.76;101384.66;110512;1257;22158;-58
2024/03/19 02:14:02;;;;;;;4.80;4.00;;;;;;;11.91;48.69;101382.77;110374;1269;22357;-58
2024/03/19 02:16:30;;;;;;;4.40;3.90;;;;;;;11.91;48.95;101383.30;110418;1259;22416;-58
2024/03/19 02:18:59;;;;;;;7.00;4.10;;;;;;;11.91;48.90;101378.77;110206;1256;22473;-58
2024/03/19 02:21:26;;;;;;;5.60;3.60;;;;;;;11.91;49.00;101377.55;110442;1257;23141;-58
2024/03/19 02:23:57;;;;;;;5.80;3.80;;;;;;;11.89;48.89;101374.46;109664;1255;1002115;-58
2024/03/19 02:26:29;;;;;;;4.70;3.50;;;;;;;11.86;48.72;101374.16;110277;1259;22941;-58
2024/03/19 02:28:57;;;;;;;4.20;3.80;;;;;;;11.82;48.80;101374.92;110528;1255;22164;-58
2024/03/19 02:31:27;;;;;;;5.70;3.90;;;;;;;11.80;48.52;101380.18;110118;1259;22434;-58
2024/03/19 02:33:55;;;;;;;6.80;3.80;;;;;;;11.76;48.27;101378.67;110435;1254;23192;-58
2024/03/19 02:36:23;;;;;;;4.00;3.60;;;;;;;11.73;48.40;101380.45;110450;1257;23168;-58
2024/03/19 02:38:51;;;;;;;7.30;4.60;;;;;;;11.72;48.45;101379.43;109669;1269;1002845;-58
2024/03/19 02:41:18;;;;;;;5.00;4.20;;;;;;;11.73;48.48;101384.45;110479;1254;22140;-58
2024/03/19 02:43:46;;;;;;;5.10;3.90;;;;;;;11.73;48.38;101386.70;110423;1258;22478;-58
2024/03/19 02:46:13;;;;;;;8.00;4.60;;;;;;;11.71;48.19;101384.30;110448;1256;22289;-58
2024/03/19 02:48:41;;;;;;;5.40;4.50;;;;;;;11.67;48.04;101384.89;110443;1256;22377;-58
2024/03/19 02:51:08;;;;;;;5.90;4.40;;;;;;;11.62;48.25;101384.77;110396;1254;22355;-58
2024/03/19 02:53:36;;;;;;;5.90;3.70;;;;;;;11.60;48.35;101382.38;109701;1254;1002879;-58
2024/03/19 02:56:03;;;;;;;5.40;4.40;;;;;;;11.58;48.19;101375.83;110412;1257;22411;-58
2024/03/19 02:58:31;;;;;;;4.80;4.10;;;;;;;11.54;48.20;101369.11;110344;1254;22292;-58
2024/03/19 03:00:58;;;;;;;4.80;3.90;;;;;;;11.51;48.38;101369.17;109643;1258;1002639;-58
2024/03/19 03:03:26;;;;;;;6.90;5.00;;;;;;;11.48;49.13;101362.95;110407;1254;23240;-58
2024/03/19 03:05:53;;;;;;;6.20;5.20;;;;;;;11.47;49.68;101353.06;110437;1257;22880;-58
2024/03/19 03:08:21;;;;;;;6.40;4.60;;;;;;;11.44;49.42;101343.89;110432;1254;22123;-58
2024/03/19 03:10:48;;;;;;;6.50;4.20;;;;;;;11.40;49.50;101332.48;110494;1253;22144;-58
2024/03/19 03:13:16;;;;;;;6.10;4.90;;;;;;;11.38;49.74;101318.97;109701;1254;1003013;-58
2024/03/19 03:15:43;;;;;;;8.10;4.60;;;;;;;11.36;49.80;101317.96;110026;1259;351677;-58
2024/03/19 03:18:10;;;;;;;5.70;4.40;;;;;;;11.34;49.66;101333.63;110443;1254;22145;-58
2024/03/19 03:20:38;;;;;;;5.60;4.50;;;;;;;11.33;49.42;101350.65;110414;1255;23261;-58
2024/03/19 03:23:05;;;;;;;7.30;4.70;;;;;;;11.33;49.01;101350.84;110440;1254;22258;-58
2024/03/19 03:25:33;;;;;;;7.30;4.40;;;;;;;11.30;48.73;101348.11;110397;1269;22404;-58
2024/03/19 03:28:01;;;;;;;4.50;4.10;;;;;;;11.27;48.78;101356.84;109680;1253;1002939;-58
2024/03/19 03:30:28;;;;;;;5.80;4.60;;;;;;;11.26;48.66;101368.30;110338;1259;23234;-58
2024/03/19 03:32:56;;;;;;;6.70;4.70;;;;;;;11.23;48.43;101368.89;110404;1255;22901;-58
2024/03/19 03:35:24;;;;;;;5.80;5.00;;;;;;;11.19;48.37;101368.60;110454;1254;22133;-58
2024/03/19 03:37:51;;;;;;;6.90;5.00;;;;;;;11.16;48.41;101373.15;110435;1257;22181;-58
2024/03/19 03:40:18;;;;;;;8.10;5.20;;;;;;;11.15;48.54;101374.55;109639;1256;1002292;-58
2024/03/19 03:42:46;;;;;;;6.10;5.10;;;;;;;11.14;48.31;101376.47;110541;1257;22291;-58
2024/03/19 03:45:26;;;;;;;6.50;4.60;;;;;;;11.10;48.05;101372.90;110501;1256;22361;-58
2024/03/19 03:47:54;;;;;;;6.90;5.20;;;;;;;11.05;48.29;101372.27;110151;1260;22325;-58
2024/03/19 03:50:21;;;;;;;6.50;5.40;;;;;;;11.03;48.60;101372.81;110346;1256;22198;-58
2024/03/19 03:52:49;;;;;;;7.40;5.80;;;;;;;11.02;48.79;101369.19;110155;1256;22202;-58
2024/03/19 03:55:16;;;;;;;7.70;5.30;;;;;;;11.00;48.85;101378.59;110472;1256;22149;-58
2024/03/19 03:57:45;;;;;;;7.90;5.90;;;;;;;10.99;49.11;101379.30;110179;1260;22118;-58
2024/03/19 04:00:13;;;;;;;8.60;6.20;;;;;;;10.97;49.06;101373.94;110318;1256;23013;-58
2024/03/19 04:02:42;;;;;;;6.50;5.60;;;;;;;10.96;49.03;101372.92;110511;1259;22345;-58
2024/03/19 04:05:10;;;;;;;8.60;6.20;;;;;;;10.96;49.25;101375.86;110506;1256;22176;-58
2024/03/19 04:07:41;;;;;;;7.30;5.60;;;;;;;10.98;49.22;101384.53;110560;1257;22868;-58
2024/03/19 04:10:10;;;;;;;7.00;5.40;;;;;;;10.98;49.40;101387.64;110419;1256;22151;-58
2024/03/19 04:12:37;;;;;;;7.00;6.30;;;;;;;10.99;49.45;101387.98;110203;1259;22959;-58
2024/03/19 04:15:09;;;;;;;10.10;6.30;;;;;;;11.01;49.45;101399.77;110075;1262;22159;-58
2024/03/19 04:17:37;;;;;;;6.90;5.80;;;;;;;11.01;49.41;101403.39;110421;1270;22552;-58
2024/03/19 04:20:05;;;;;;;8.20;6.90;;;;;;;11.02;49.49;101409.29;110489;1257;22107;-58
2024/03/19 04:22:34;;;;;;;8.60;5.80;;;;;;;11.03;49.42;101413.79;110438;1269;22137;-58
2024/03/19 04:25:06;;;;;;;7.40;6.30;;;;;;;11.04;49.38;101419.33;109445;1260;1002548;-58
2024/03/19 04:27:34;;;;;;;7.20;6.20;;;;;;;11.04;49.34;101425.23;110182;1256;22130;-58
2024/03/19 04:30:02;;;;;;;5.60;5.00;;;;;;;11.04;49.33;101420.55;110434;1256;22771;-58
2024/03/19 04:32:30;;;;;;;6.50;5.40;;;;;;;11.07;49.25;101419.83;110253;1260;22976;-58
2024/03/19 04:34:58;;;;;;;8.10;6.30;;;;;;;11.11;49.08;101428.10;110442;1253;22777;-58
2024/03/19 04:37:27;;;;;;;7.60;5.90;;;;;;;11.13;48.96;101433.79;110429;1270;23314;-58
2024/03/19 04:39:55;;;;;;;6.50;5.80;;;;;;;11.14;49.21;101436.20;110476;1259;22312;-58
2024/03/19 04:42:23;;;;;;;8.80;6.50;;;;;;;11.17;49.25;101439.30;110389;1257;22183;-57
2024/03/19 04:44:50;;;;;;;7.30;5.40;;;;;;;11.20;49.21;101444.30;110399;1254;22855;-57
2024/03/19 04:47:19;;;;;;;7.00;5.80;;;;;;;11.21;49.23;101448.61;110476;1257;22142;-58
2024/03/19 04:49:46;;;;;;;6.90;5.70;;;;;;;11.22;49.30;101451.22;110334;1259;22308;-58
2024/03/19 04:52:14;;;;;;;10.40;5.70;;;;;;;11.20;49.23;101448.46;110420;1255;22416;-58
2024/03/19 04:54:41;;;;;;;8.50;5.40;;;;;;;11.17;49.21;101449.88;109646;1256;1002740;-58
2024/03/19 04:57:09;;;;;;;7.10;5.80;;;;;;;11.16;49.14;101452.34;110516;1256;22136;-58
2024/03/19 04:59:36;;;;;;;7.60;5.70;;;;;;;11.17;49.16;101451.63;110533;1255;22806;-58
2024/03/19 05:02:04;;;;;;;6.00;5.30;;;;;;;11.16;49.30;101448.70;110427;1269;22368;-58
2024/03/19 05:04:32;;;;;;;6.20;4.80;;;;;;;11.18;49.38;101446.75;110465;1254;22785;-58
2024/03/19 05:07:00;;;;;;;7.10;5.30;;;;;;;11.22;49.46;101444.61;110109;1262;22290;-58
2024/03/19 05:09:27;;;;;;;5.50;5.00;;;;;;;11.21;49.16;101441.85;110450;1269;23030;-58
2024/03/19 05:11:55;;;;;;;7.10;5.30;;;;;;;11.18;49.18;101437.38;110171;1260;22140;-58
2024/03/19 05:14:22;;;;;;;6.10;5.30;;;;;;;11.16;49.29;101441.91;110420;1257;22447;-58
2024/03/19 05:16:50;;;;;;;5.60;4.60;;;;;;;11.15;49.39;101444.20;109435;1256;1002767;-58
2024/03/19 05:19:17;;;;;;;7.50;5.80;;;;;;;11.13;49.39;101447.85;110494;1257;22417;-58
2024/03/19 05:21:44;;;;;;;6.20;4.90;;;;;;;11.12;49.37;101443.70;110484;1257;23105;-58
2024/03/19 05:24:15;;;;;;;5.70;5.10;;;;;;;11.13;49.47;101445.96;110506;1257;22310;-58
2024/03/19 05:26:43;;;;;;;5.90;4.90;;;;;;;11.12;49.53;101441.63;110198;1256;22316;-58
2024/03/19 05:29:10;;;;;;;10.10;5.90;;;;;;;11.11;49.54;101444.05;110484;1257;22393;-58
2024/03/19 05:31:37;;;;;;;5.60;4.70;;;;;;;11.11;49.61;101446.48;110405;1257;22133;-58
2024/03/19 05:34:05;;;;;;;5.90;5.00;;;;;;;11.13;49.70;101452.72;110479;1257;22192;-58
2024/03/19 05:36:32;;;;;;;5.90;5.10;;;;;;;11.18;49.88;101453.35;110534;1254;22349;-58
2024/03/19 05:39:00;;;;;;;6.00;5.10;;;;;;;11.23;49.82;101459.70;110438;1255;22159;-58
2024/03/19 05:41:27;;;;;;;6.60;5.40;;;;;;;11.28;49.75;101469.53;110457;1256;22921;-58
2024/03/19 05:43:54;;;;;;;7.70;5.90;;;;;;;11.31;49.52;101471.41;109705;1269;1002223;-58
2024/03/19 05:46:24;;;;;;;6.70;4.90;;;;;;;11.32;49.66;101467.40;110519;1257;22614;-58
2024/03/19 05:48:51;;;;;;;5.90;4.70;;;;;;;11.35;49.62;101469.26;110484;1254;22181;-58
2024/03/19 05:51:19;;;;;;;6.80;5.20;;;;;;;11.37;49.51;101471.32;110472;1256;22397;-58
2024/03/19 05:53:46;;;;;;;7.40;5.00;;;;;;;11.36;49.29;101468.90;110406;1258;22330;-58
2024/03/19 05:56:14;;;;;;;7.70;5.40;;;;;;;11.34;49.46;101467.55;110491;1256;22791;-58
2024/03/19 05:58:41;;;;;;;6.50;5.70;;;;;;;11.31;49.50;101472.97;110454;1259;22615;-58
2024/03/19 06:01:09;;;;;;;6.30;5.20;;;;;;;11.28;49.90;101470.40;110550;1256;22118;-58
2024/03/19 06:03:37;;;;;;;5.70;5.00;;;;;;;11.27;50.20;101474.60;110134;1268;22144;-58
2024/03/19 06:06:10;;;;;;;5.70;4.90;;;;;;;11.27;50.41;101478.73;110472;1269;22242;-58
2024/03/19 06:08:39;;;;;;;9.60;5.80;;;;;;;11.27;50.32;101478.23;110433;1276;23081;-58
2024/03/19 06:11:09;;;;;;;6.10;4.40;;;;;;;11.26;50.31;101480.67;110463;1269;22407;-58
2024/03/19 06:13:37;;;;;;;6.10;4.90;;;;;;;11.26;50.44;101483.98;110536;1257;22155;-58
2024/03/19 06:16:05;;;;;;;6.30;4.80;;;;;;;11.26;50.67;101483.29;110212;1272;22164;-58
2024/03/19 06:18:33;;;;;;;7.60;5.40;;;;;;;11.27;50.76;101485.70;109635;1255;1002523;-57
2024/03/19 06:21:00;;;;;;;6.50;5.30;;;;;;;11.28;50.68;101486.91;110249;1260;23015;-58
2024/03/19 06:23:28;;;;;;;6.10;5.20;;;;;;;11.27;50.74;101484.31;110289;1260;22155;-58
2024/03/19 06:25:55;;;;;;;6.40;5.60;;;;;;;11.27;50.94;101487.80;109677;1259;1002327;-58
2024/03/19 06:28:23;;;;;;;6.50;5.60;;;;;;;11.29;51.16;101492.45;109678;1256;1003071;-58
2024/03/19 06:30:54;;;;;;;7.40;5.50;;;;;;;11.32;51.35;101497.27;110519;1269;22893;-58
2024/03/19 06:33:21;;;;;;;5.70;5.10;;;;;;;11.36;51.49;101500.35;110442;1257;23108;-58
2024/03/19 06:35:52;;;;;;;5.60;4.90;;;;;;;11.41;51.34;101499.08;110413;1254;22304;-58
2024/03/19 06:38:19;;;;;;;5.70;5.20;;;;;;;11.44;51.15;101505.46;109682;1256;1002471;-58
2024/03/19 06:40:47;;;;;;;5.90;5.30;;;;;;;11.47;51.31;101506.11;110394;1259;22157;-58
2024/03/19 06:43:14;;;;;;;6.90;5.20;;;;;;;11.50;51.20;101502.09;110453;1259;22933;-57
2024/03/19 06:45:42;;;;;;;6.40;5.00;;;;;;;11.51;51.19;101500.16;109397;1259;1002393;-58
2024/03/19 06:48:10;;;;;;;5.20;4.70;;;;;;;11.52;51.31;101503.27;110469;1276;23204;-58
2024/03/19 06:50:37;;;;;;;6.70;4.90;;;;;;;11.52;51.14;101505.36;110402;1276;23020;-58
2024/03/19 06:53:05;;;;;;;5.90;4.80;;;;;;;11.52;51.19;101506.05;109643;1256;1002716;-58
2024/03/19 06:55:32;;;;;;;5.40;4.90;;;;;;;11.54;51.27;101509.50;110206;1276;22305;-58
2024/03/19 06:58:00;;;;;;;6.80;5.50;;;;;;;11.55;51.29;101510.70;109555;1256;1002499;-58
2024/03/19 07:00:27;;;;;;;7.30;5.30;;;;;;;11.55;51.49;101515.74;110475;1259;22130;-57
2024/03/19 07:02:55;;;;;;;6.00;5.40;;;;;;;11.54;51.67;101513.50;110442;1269;22616;-57
2024/03/19 07:05:22;;;;;;;5.40;4.90;;;;;;;11.53;51.82;101519.08;110452;1276;22305;-57
2024/03/19 07:07:54;;;;;;;6.20;5.60;;;;;;;11.51;51.85;101521.01;110454;1269;22424;-57
2024/03/19 07:10:23;;;;;;;;;;;;;;;11.47;51.79;101524.52;110284;1276;22443;-57
2024/03/19 07:12:51;;;;;;;7.10;6.20;;;;;;;11.40;51.87;101524.44;110439;1276;22142;-57
2024/03/19 07:15:19;;;;;;;7.20;5.60;;;;;;;11.34;52.03;101526.09;110260;1276;22137;-57
2024/03/19 07:17:50;;;;;;;6.80;6.10;;;;;;;11.30;52.34;101534.14;110421;1271;22123;-57
2024/03/19 07:20:20;;;;;;;8.00;6.20;;;;;;;11.24;52.28;101540.64;109680;1276;1002304;-57
2024/03/19 07:22:49;;;;;;;6.20;5.20;;;;;;;11.15;52.48;101540.73;110461;1269;22271;-58
2024/03/19 07:25:17;;;;;;;7.10;5.20;;;;;;;11.12;52.72;101542.34;110169;1276;22130;-58
2024/03/19 07:27:44;;;;;;;5.60;4.70;;;;;;;11.11;52.73;101540.43;109551;1268;1002122;-57
2024/03/19 07:30:12;;;;;;;6.70;4.70;;;;;;;11.10;52.54;101540.80;109745;1269;1002650;-57
2024/03/19 07:32:40;;;;;;;5.70;4.40;;;;;;;11.07;52.60;101541.01;110228;1272;22316;-57
2024/03/19 07:35:08;;;;;;;7.30;4.80;;;;;;;11.05;52.56;101543.81;110426;1276;22835;-58
2024/03/19 07:37:36;;;;;;;4.30;3.70;;;;;;;11.06;52.73;101540.67;110317;1269;22814;-58
2024/03/19 07:40:09;;;;;;;7.60;5.10;;;;;;;11.07;52.53;101540.14;110166;1269;22437;-57
2024/03/19 07:42:37;;;;;;;4.60;4.20;;;;;;;11.04;52.41;101540.52;110186;1276;23064;-58
2024/03/19 07:45:08;;;;;;;4.80;4.20;;;;;;;11.01;52.62;101542.63;110388;1269;22403;-58
2024/03/19 07:47:35;;;;;;;4.80;4.30;;;;;;;10.99;52.72;101542.14;110462;1270;22793;-57
2024/03/19 07:50:07;;;;;;;7.20;4.60;;;;;;;10.95;52.43;101538.36;110421;1276;22325;-57
2024/03/19 07:52:35;;;;;;;4.50;4.10;;;;;;;10.91;52.71;101542.22;109766;1269;1002343;-57
2024/03/19 07:55:05;;;;;;;4.00;3.60;;;;;;;10.90;52.89;101538.05;110491;1269;22129;-57
2024/03/19 07:57:33;;;;;;;4.90;4.20;;;;;;;10.91;53.06;101537.02;110423;1270;23040;-58
2024/03/19 08:00:09;;;;;;;4.50;3.90;;;;;;;10.91;53.25;101538.22;109699;1270;1002550;-58
2024/03/19 08:02:38;;;;;;;6.50;4.50;;;;;;;10.90;53.22;101537.19;110124;1276;22239;-58
2024/03/19 08:05:12;;;;;;;5.80;4.20;;;;;;;10.88;53.35;101542.25;110174;1272;22293;-58
2024/03/19 08:07:45;;;;;;;5.60;4.50;;;;;;;10.88;53.69;101540.70;110413;1272;24038;-58
2024/03/19 08:10:13;;;;;;;5.20;4.20;;;;;;;10.87;53.57;101544.00;110444;1271;22860;-58
2024/03/19 08:12:41;;;;;;;4.50;4.10;;;;;;;10.85;53.50;101547.66;109670;1271;1003132;-58
2024/03/19 08:15:09;;;;;;;4.70;4.30;;;;;;;10.82;53.69;101547.70;110241;1276;22899;-58
2024/03/19 08:17:36;;;;;;;5.00;4.00;;;;;;;10.81;53.72;101545.97;110284;1276;22127;-58
2024/03/19 08:20:07;;;;;;;5.20;4.70;;;;;;;10.79;53.80;101546.69;110150;1269;22436;-58
2024/03/19 08:22:34;;;;;;;5.00;4.20;;;;;;;10.78;53.88;101547.91;109685;1269;1002256;-59
2024/03/19 08:25:04;;;;;;;6.00;5.10;;;;;;;10.78;53.79;101548.44;110428;1276;22223;-58
2024/03/19 08:27:31;;;;;;;5.70;4.60;;;;;;;10.79;54.11;101549.46;110128;1276;22309;-58
2024/03/19 08:30:01;;;;;;;5.20;4.50;;;;;;;10.82;54.06;101550.48;109581;1276;1006427;-58
2024/03/19 08:32:31;;;;;;;;;;;;;;;10.86;53.89;101555.80;109709;1269;1002442;-58
2024/03/19 08:34:58;;;;;;;7.10;4.60;;;;;;;10.90;53.96;101557.50;110376;1276;22787;-58
2024/03/19 08:37:26;;;;;;;4.70;4.20;;;;;;;10.94;54.00;101560.59;110430;1269;22295;-58
2024/03/19 08:39:54;;;;;;;7.00;5.00;;;;;;;10.98;53.92;101565.94;110488;1276;22501;-58
2024/03/19 08:42:21;;;;;;;5.40;4.70;;;;;;;11.01;53.97;101565.55;110432;1269;22272;-58
2024/03/19 08:44:49;;;;;;;5.50;4.70;;;;;;;11.03;53.70;101565.18;110451;1269;23174;-58
2024/03/19 08:47:17;;;;;;;6.90;4.60;;;;;;;11.04;53.51;101568.65;109618;1269;1007009;-58
2024/03/19 08:49:44;;;;;;;5.70;5.10;;;;;;;11.04;53.55;101575.77;110402;1273;22154;-58
2024/03/19 08:52:12;;;;;;;6.10;5.10;;;;;;;11.03;53.44;101573.34;110409;1275;23247;-58
2024/03/19 08:54:39;;;;;;;6.40;4.90;;;;;;;11.02;53.70;101575.95;110453;1269;22415;-58
2024/03/19 08:57:10;;;;;;;7.30;5.20;;;;;;;11.03;53.88;101578.38;110191;1276;23150;-58
2024/03/19 08:59:38;;;;;;;6.40;5.30;;;;;;;11.05;53.94;101574.71;110108;1276;22121;-58
2024/03/19 09:02:07;;;;;;;6.10;5.40;;;;;;;11.10;53.96;101579.00;110251;1275;22342;-58
2024/03/19 09:04:35;;;;;;;6.40;5.40;;;;;;;11.14;53.70;101578.09;110509;1269;22307;-58
2024/03/19 09:07:03;;;;;;;5.70;5.10;;;;;;;11.14;53.47;101580.67;109665;1272;1002770;-58
2024/03/19 09:09:30;;;;;;;7.40;5.40;;;;;;;11.17;53.72;101581.35;110450;1272;23182;-58
2024/03/19 09:11:58;;;;;;;6.50;5.90;;;;;;;11.21;53.96;101580.61;110416;1270;22288;-58
2024/03/19 09:14:25;;;;;;;5.90;5.40;;;;;;;11.25;53.77;101580.73;110441;1272;22362;-58
2024/03/19 09:16:53;;;;;;;5.60;5.10;;;;;;;11.24;53.35;101580.91;110191;1269;22725;-59
2024/03/19 09:19:20;;;;;;;5.70;5.00;;;;;;;11.23;53.50;101581.79;109715;1276;1002793;-58
2024/03/19 09:21:49;;;;;;;7.40;5.60;;;;;;;11.25;53.70;101583.87;110436;1270;22911;-58
2024/03/19 09:24:16;;;;;;;6.60;5.90;;;;;;;11.26;53.73;101579.67;110449;1269;22136;-58
2024/03/19 09:26:44;;;;;;;6.00;5.40;;;;;;;11.27;53.89;101577.58;110466;1269;22297;-58
2024/03/19 09:29:11;;;;;;;6.10;5.20;;;;;;;11.28;53.64;101579.83;110194;1273;23042;-58
2024/03/19 09:31:39;;;;;;;6.20;5.60;;;;;;;11.29;53.59;101578.26;110492;1269;22415;-58
2024/03/19 09:34:06;;;;;;;5.90;5.10;;;;;;;11.32;53.51;101578.05;110512;1276;23024;-58
2024/03/19 09:36:33;;;;;;;7.00;5.10;;;;;;;11.33;53.32;101580.28;109755;1268;1002976;-58
2024/03/19 09:39:04;;;;;;;6.40;5.30;;;;;;;11.33;53.46;101583.77;110496;1272;22417;-58
2024/03/19 09:41:31;;;;;;;6.70;6.00;;;;;;;11.31;53.11;101583.43;110419;1269;22115;-58
2024/03/19 09:43:59;;;;;;;5.40;4.90;;;;;;;11.29;53.27;101586.41;110516;1269;22384;-58
2024/03/19 09:46:27;;;;;;;6.60;5.00;;;;;;;11.29;53.25;101587.65;110210;1278;22853;-59
2024/03/19 09:48:54;;;;;;;6.60;5.80;;;;;;;11.28;53.21;101584.00;110082;1270;22814;-58
2024/03/19 09:51:21;;;;;;;7.50;5.50;;;;;;;11.28;53.10;101584.34;110204;1270;22313;-59
2024/03/19 09:53:49;;;;;;;6.40;5.20;;;;;;;11.27;53.07;101582.10;110168;1272;22175;-58
2024/03/19 09:56:21;;;;;;;5.90;5.30;;;;;;;11.27;53.27;101581.22;110159;1278;22300;-58
2024/03/19 09:58:50;;;;;;;;;;;;;;;11.29;53.11;101579.14;110239;1272;22462;-58
2024/03/19 10:01:17;;;;;;;7.90;5.80;;;;;;;11.28;53.10;101580.00;110203;1273;22360;-58
2024/03/19 10:03:45;;;;;;;9.60;7.10;;;;;;;11.29;53.20;101575.30;110085;1275;22996;-58
2024/03/19 10:06:16;;;;;;;10.40;7.20;;;;;;;11.31;53.07;101573.20;109409;1275;1002331;-59
2024/03/19 10:08:44;;;;;;;6.60;5.60;;;;;;;11.32;53.08;101570.23;110201;1278;22266;-58
2024/03/19 10:11:13;;;;;;;6.70;5.90;;;;;;;11.31;53.28;101565.37;110209;1279;22373;-58
2024/03/19 10:13:40;;;;;;;6.40;5.30;;;;;;;11.35;53.22;101567.59;110210;1272;22431;-58
2024/03/19 10:16:08;;;;;;;5.50;4.90;;;;;;;11.40;53.25;101565.10;110213;1273;22200;-58
2024/03/19 10:18:36;;;;;;;5.50;5.00;;;;;;;11.43;53.08;101566.10;110434;1269;22158;-58
2024/03/19 10:21:04;;;;;;;5.50;5.00;;;;;;;11.47;53.17;101571.96;110569;1269;22152;-58
2024/03/19 10:23:31;;;;;;;6.70;5.40;;;;;;;11.54;53.40;101569.79;110370;1270;22462;-58
2024/03/19 10:25:59;;;;;;;5.70;5.00;;;;;;;11.61;53.40;101566.75;110448;1276;22392;-59
2024/03/19 10:28:26;;;;;;;6.70;6.00;;;;;;;11.66;53.30;101563.73;110540;1269;23141;-58
2024/03/19 10:30:54;;;;;;;5.20;4.70;;;;;;;11.70;52.98;101561.27;110428;1276;22784;-58
2024/03/19 10:33:21;;;;;;;5.00;4.50;;;;;;;11.74;52.71;101561.90;110238;1271;22284;-58
2024/03/19 10:35:49;;;;;;;4.80;4.40;;;;;;;11.71;51.82;101562.46;110249;1269;22650;-58
2024/03/19 10:38:16;;;;;;;4.80;4.10;;;;;;;11.64;51.80;101559.94;110459;1272;22296;-58
2024/03/19 10:41:02;;;;;;;5.70;4.70;;;;;;;11.54;51.56;101565.09;110480;1276;22380;-58
2024/03/19 10:43:29;;;;;;;5.40;4.60;;;;;;;11.46;51.68;101564.33;110310;1273;22442;-58
2024/03/19 10:45:57;;;;;;;4.60;4.20;;;;;;;11.46;52.16;101561.02;110388;1276;22779;-58
2024/03/19 10:48:25;;;;;;;4.90;4.50;;;;;;;11.45;52.05;101557.04;110387;1276;22154;-58
2024/03/19 10:50:53;;;;;;;5.30;4.80;;;;;;;11.43;51.91;101555.86;110343;1269;22135;-58
2024/03/19 10:53:20;;;;;;;4.30;3.90;;;;;;;11.41;52.17;101555.54;110499;1270;22218;-58
2024/03/19 10:55:51;;;;;;;4.10;3.70;;;;;;;11.45;52.56;101550.79;110301;1272;22121;-58
2024/03/19 10:58:22;;;;;;;4.60;3.90;;;;;;;11.50;52.64;101546.91;110295;1272;22141;-58
2024/03/19 11:00:50;;;;;;;4.10;3.80;;;;;;;11.56;52.37;101546.48;110272;1273;23013;-58
2024/03/19 11:03:19;;;;;;;5.50;4.10;;;;;;;11.58;52.39;101544.36;109737;1269;1002622;-59
2024/03/19 11:05:47;;;;;;;3.70;3.10;;;;;;;11.61;52.13;101543.98;110139;1268;22137;-58
2024/03/19 11:08:15;;;;;;;3.40;3.10;;;;;;;11.62;52.11;101547.09;109348;1270;1002728;-58
2024/03/19 11:10:43;;;;;;;3.90;3.40;;;;;;;11.65;51.85;101542.54;110518;1276;22281;-58
2024/03/19 11:13:17;;;;;;;4.00;3.60;;;;;;;11.66;51.81;101539.41;110245;1276;22379;-58
2024/03/19 11:15:45;;;;;;;4.00;3.50;;;;;;;11.67;51.97;101538.02;110248;1276;22127;-58
2024/03/19 11:18:12;;;;;;;3.50;3.20;;;;;;;11.65;52.00;101538.71;110490;1276;22470;-59